Time;durP1;ratioP1;P1;durP2;ratioP2;P2;SDS_P1;SDS_P2;PMS_P1;PMS_P2;Temp;Humidity;BMP_temperature;BMP_pressure;BME280_temperature;BME280_humidity;BME280_pressure;Samples;Min_cycle;Max_cycle;Signal;HPM_P1;HPM_P2
2022/10/26 00:01:03;;;;;;;;;3.50;3.50;;;;;15.84;96.51;99186.69;5016070;28;45348;-69
2022/10/26 00:03:28;;;;;;;;;4.00;4.00;;;;;15.81;96.55;99200.19;5015936;28;45584;-69
2022/10/26 00:05:54;;;;;;;;;6.00;4.50;;;;;15.79;96.35;99199.41;5015699;28;46595;-69
2022/10/26 00:08:19;;;;;;;;;5.50;4.75;;;;;15.78;95.52;99201.22;5016380;28;45255;-69
2022/10/26 00:10:44;;;;;;;;;3.75;3.75;;;;;15.78;96.08;99214.50;5015277;28;45394;-69
2022/10/26 00:13:12;;;;;;;;;7.75;5.50;;;;;15.78;92.87;99232.25;5015997;28;45323;-69
2022/10/26 00:15:41;;;;;;;;;5.20;5.20;;;;;15.75;94.08;99227.16;5015689;28;45421;-69
2022/10/26 00:18:07;;;;;;;;;6.00;5.80;;;;;15.67;94.32;99217.81;5014664;28;45435;-69
2022/10/26 00:20:33;;;;;;;;;7.50;5.50;;;;;15.61;96.48;99249.19;5015703;28;45462;-69
2022/10/26 00:22:58;;;;;;;;;5.00;4.75;;;;;15.56;94.36;99224.72;5014630;28;45425;-69
2022/10/26 00:25:24;;;;;;;;;6.25;4.75;;;;;15.53;96.39;99223.06;5015897;28;46343;-69
2022/10/26 00:27:49;;;;;;;;;5.50;5.50;;;;;15.51;96.75;99213.47;5016006;28;45252;-69
2022/10/26 00:30:14;;;;;;;;;6.50;5.25;;;;;15.52;95.90;99207.19;5016203;28;45833;-69
2022/10/26 00:32:40;;;;;;;;;5.25;5.25;;;;;15.52;97.82;99213.38;5016106;28;45338;-69
2022/10/26 00:35:05;;;;;;;;;4.75;4.75;;;;;15.54;95.69;99203.50;5015239;28;45393;-69
2022/10/26 00:37:31;;;;;;;;;11.50;5.75;;;;;15.55;97.90;99201.72;5016016;28;45353;-69
2022/10/26 00:39:56;;;;;;;;;4.25;4.25;;;;;15.57;96.74;99195.41;5014303;28;45935;-69
2022/10/26 00:42:23;;;;;;;;;7.00;5.00;;;;;15.60;96.23;99189.88;5015664;28;45623;-69
2022/10/26 00:44:48;;;;;;;;;4.20;4.20;;;;;15.65;97.83;99202.91;5015514;28;46151;-69
2022/10/26 00:47:47;;;;;;;;;5.75;5.50;;;;;15.69;97.48;99215.06;5015574;28;45566;-69
2022/10/26 00:50:28;;;;;;;;;4.25;4.25;;;;;15.70;96.89;99216.78;5006126;28;45404;-69
2022/10/26 00:52:57;;;;;;;;;3.75;3.75;;;;;15.70;96.99;99214.97;5015533;28;45564;-69
2022/10/26 00:55:28;;;;;;;;;3.50;3.50;;;;;15.68;95.41;99221.31;5010986;28;47254;-69
2022/10/26 00:57:53;;;;;;;;;6.40;5.00;;;;;15.65;96.02;99235.66;5002434;28;45385;-69
2022/10/26 01:00:19;;;;;;;;;6.00;4.50;;;;;15.66;96.42;99226.72;5015587;28;45450;-69
2022/10/26 01:02:49;;;;;;;;;5.75;5.75;;;;;15.67;96.11;99235.56;5015418;28;45585;-69
2022/10/26 01:05:16;;;;;;;;;5.00;5.00;;;;;15.70;97.45;99241.56;5014834;28;45370;-69
2022/10/26 01:07:44;;;;;;;;;10.60;8.40;;;;;15.70;96.66;99241.56;5015457;28;45374;-69
2022/10/26 01:10:10;;;;;;;;;9.75;6.50;;;;;15.70;98.93;99254.84;5015490;28;45453;-69
2022/10/26 01:12:36;;;;;;;;;10.75;9.25;;;;;15.69;98.18;99242.50;5015395;28;45397;-69
2022/10/26 01:15:02;;;;;;;;;9.75;8.75;;;;;15.71;99.68;99247.72;5015211;28;45474;-69
2022/10/26 01:17:50;;;;;;;;;5.25;5.25;;;;;15.73;99.54;99244.97;5015017;28;45508;-69
2022/10/26 01:20:43;;;;;;;;;16.50;12.75;;;;;15.76;99.92;99242.97;5013372;28;45386;-69
2022/10/26 01:23:26;;;;;;;;;16.00;14.50;;;;;15.78;100.00;99241.09;5014468;28;45390;-69
2022/10/26 01:26:13;;;;;;;;;17.75;13.50;;;;;15.83;100.00;99254.97;5015117;28;45463;-70
2022/10/26 01:28:47;;;;;;;;;20.75;19.00;;;;;15.89;100.00;99269.72;5014910;28;45367;-69
2022/10/26 01:31:23;;;;;;;;;18.75;18.25;;;;;16.00;100.00;99270.78;5013707;28;45390;-69
2022/10/26 01:34:14;;;;;;;;;21.75;19.50;;;;;16.20;100.00;99263.41;5014672;28;45353;-69
2022/10/26 01:36:56;;;;;;;;;18.50;16.00;;;;;16.49;100.00;99249.16;5012087;28;45457;-69
2022/10/26 01:39:28;;;;;;;;;22.75;20.75;;;;;16.85;98.77;99250.50;5013189;28;45374;-69
2022/10/26 01:42:00;;;;;;;;;18.25;16.75;;;;;17.20;96.60;99251.75;5015095;28;45437;-69
2022/10/26 01:44:32;;;;;;;;;6.00;6.00;;;;;17.47;97.09;99253.53;5014659;28;45516;-70
2022/10/26 01:47:00;;;;;;;;;6.40;5.40;;;;;17.47;95.07;99278.41;5014895;28;45562;-70
2022/10/26 01:49:30;;;;;;;;;6.40;6.00;;;;;17.39;95.27;99310.91;5014206;28;45478;-69
2022/10/26 01:51:55;;;;;;;;;4.00;4.00;;;;;17.32;93.75;99333.56;5014833;28;45473;-70
2022/10/26 01:54:21;;;;;;;;;4.00;4.00;;;;;17.26;92.70;99330.44;5014888;28;45345;-69
2022/10/26 01:56:50;;;;;;;;;5.00;5.00;;;;;17.18;91.88;99320.25;5014935;28;46597;-69
2022/10/26 01:59:34;;;;;;;;;4.00;4.00;;;;;17.09;90.36;99324.34;5014543;28;45417;-70
2022/10/26 02:02:02;;;;;;;;;6.20;5.60;;;;;17.02;91.19;99322.19;5014986;28;45397;-70
2022/10/26 02:05:01;;;;;;;;;8.75;7.00;;;;;16.97;91.23;99349.09;5013057;28;45467;-70
2022/10/26 02:07:40;;;;;;;;;6.40;5.00;;;;;16.96;91.12;99349.19;5014406;28;45364;-70
2022/10/26 02:10:23;;;;;;;;;7.40;6.80;;;;;16.96;91.15;99351.88;5014619;28;45636;-70
2022/10/26 02:13:00;;;;;;;;;5.00;5.00;;;;;16.95;90.79;99356.34;5014749;28;45413;-70
2022/10/26 02:16:08;;;;;;;;;7.75;5.50;;;;;16.92;90.16;99361.03;5014297;28;45357;-70
2022/10/26 02:18:36;;;;;;;;;4.50;4.25;;;;;16.89;90.40;99380.69;5006779;28;45471;-70
2022/10/26 02:21:07;;;;;;;;;8.00;5.00;;;;;16.87;90.00;99368.44;5013872;28;45334;-70
2022/10/26 02:23:35;;;;;;;;;7.40;6.00;;;;;16.82;90.03;99378.50;5014453;28;45491;-70
2022/10/26 02:26:06;;;;;;;;;3.00;2.00;;;;;16.76;90.49;99373.56;5014473;28;45361;-70
2022/10/26 02:28:38;;;;;;;;;5.00;5.00;;;;;16.71;90.03;99374.69;5029412;28;48357;-70
2022/10/26 02:31:05;;;;;;;;;4.80;4.00;;;;;16.65;89.89;99380.38;5014144;28;45436;-70
2022/10/26 02:33:35;;;;;;;;;4.40;4.00;;;;;16.64;90.14;99377.81;5014315;28;45346;-70
2022/10/26 02:36:04;;;;;;;;;4.00;3.80;;;;;16.58;90.72;99384.34;5015271;28;45337;-70
2022/10/26 02:38:33;;;;;;;;;4.40;4.40;;;;;16.54;90.70;99377.50;5017623;28;45746;-70
2022/10/26 02:41:01;;;;;;;;;5.40;5.00;;;;;16.50;90.65;99380.44;5017471;28;45401;-70
2022/10/26 02:43:31;;;;;;;;;3.60;3.60;;;;;16.44;90.29;99399.41;5017825;28;45447;-70
2022/10/26 02:46:04;;;;;;;;;7.00;3.75;;;;;16.38;91.41;99395.31;5017143;28;45516;-70
2022/10/26 02:48:30;;;;;;;;;7.75;6.00;;;;;16.32;90.73;99396.53;5017081;28;45700;-70
2022/10/26 02:51:01;;;;;;;;;2.20;2.20;;;;;16.26;91.00;99388.06;5017097;28;45378;-69
2022/10/26 02:53:32;;;;;;;;;7.60;5.00;;;;;16.22;91.22;99376.75;5017771;28;45373;-69
2022/10/26 02:56:05;;;;;;;;;7.75;4.75;;;;;16.14;91.13;99389.63;5017150;28;45422;-70
2022/10/26 02:58:37;;;;;;;;;4.00;4.00;;;;;16.08;91.61;99408.63;5017367;28;45591;-70
2022/10/26 03:01:03;;;;;;;;;6.60;4.00;;;;;16.03;91.77;99398.25;5017242;28;45230;-69
2022/10/26 03:03:28;;;;;;;;;5.00;4.00;;;;;16.01;91.90;99393.97;5017596;28;45370;-70
2022/10/26 03:05:54;;;;;;;;;4.75;4.75;;;;;15.98;91.94;99402.13;5016946;28;45512;-70
2022/10/26 03:08:19;;;;;;;;;5.00;4.00;;;;;15.96;92.02;99396.88;5016886;28;45658;-70
2022/10/26 03:10:45;;;;;;;;;4.00;3.75;;;;;15.94;92.37;99396.09;5016887;28;45434;-70
2022/10/26 03:13:12;;;;;;;;;5.00;5.00;;;;;15.95;92.78;99404.94;5017027;28;45353;-70
2022/10/26 03:15:38;;;;;;;;;4.00;4.00;;;;;15.94;92.15;99405.88;5016775;28;45553;-69
2022/10/26 03:18:04;;;;;;;;;4.80;4.80;;;;;15.94;92.09;99409.41;5017051;28;46266;-70
2022/10/26 03:20:30;;;;;;;;;4.20;4.00;;;;;15.94;91.95;99411.19;5016316;28;45299;-70
2022/10/26 03:22:56;;;;;;;;;6.40;4.80;;;;;15.93;92.29;99415.66;5016975;28;45318;-70
2022/10/26 03:25:23;;;;;;;;;6.25;5.75;;;;;15.93;92.77;99414.81;5016931;28;45540;-70
2022/10/26 03:27:59;;;;;;;;;4.60;4.20;;;;;15.92;92.11;99419.25;5016894;28;46276;-70
2022/10/26 03:30:25;;;;;;;;;5.00;5.00;;;;;15.92;92.60;99408.63;5016812;28;45534;-70
2022/10/26 03:32:50;;;;;;;;;9.00;4.25;;;;;15.92;92.70;99415.78;5016992;28;45318;-70
2022/10/26 03:35:16;;;;;;;;;6.00;5.75;;;;;15.92;92.94;99421.09;5011866;28;45801;-70
2022/10/26 03:37:41;;;;;;;;;7.00;5.50;;;;;15.92;92.72;99426.41;5010840;28;45586;-70
2022/10/26 03:40:07;;;;;;;;;5.50;5.50;;;;;15.93;93.14;99431.63;5016466;28;45549;-70
2022/10/26 03:42:35;;;;;;;;;5.50;4.75;;;;;15.95;93.03;99432.38;5016798;28;45471;-70
2022/10/26 03:45:00;;;;;;;;;5.75;4.00;;;;;15.97;92.88;99445.59;5016504;28;45386;-70
2022/10/26 03:47:26;;;;;;;;;6.00;5.75;;;;;15.99;92.85;99446.38;5016039;28;45638;-70
2022/10/26 03:49:51;;;;;;;;;5.50;5.50;;;;;16.01;93.04;99444.50;5016224;28;45401;-70
2022/10/26 03:52:16;;;;;;;;;5.50;5.00;;;;;16.02;93.10;99457.72;5016518;28;45399;-69
2022/10/26 03:54:42;;;;;;;;;6.00;5.75;;;;;16.04;92.62;99452.31;5016373;28;45311;-70
2022/10/26 03:57:07;;;;;;;;;8.00;6.50;;;;;16.04;93.04;99446.97;5016286;28;45936;-70
2022/10/26 03:59:33;;;;;;;;;5.75;4.75;;;;;16.04;93.02;99462.94;5016268;28;45378;-70
2022/10/26 04:01:58;;;;;;;;;10.25;8.25;;;;;16.02;92.67;99459.50;5016500;28;45594;-70
2022/10/26 04:04:23;;;;;;;;;11.50;7.75;;;;;16.00;93.13;99458.72;5015956;28;45429;-70
2022/10/26 04:06:49;;;;;;;;;9.75;9.75;;;;;15.96;93.07;99470.47;5015994;28;45402;-70
2022/10/26 04:09:14;;;;;;;;;10.50;10.50;;;;;15.93;93.20;99466.19;5031559;28;45318;-70
2022/10/26 04:11:39;;;;;;;;;8.25;7.75;;;;;15.90;93.01;99468.19;5016164;28;45521;-70
2022/10/26 04:14:05;;;;;;;;;8.00;8.00;;;;;15.88;93.07;99465.63;5016363;28;45524;-70
2022/10/26 04:16:30;;;;;;;;;8.75;7.00;;;;;15.86;93.05;99472.81;5031072;28;45737;-70
2022/10/26 04:18:56;;;;;;;;;9.75;9.00;;;;;15.85;93.22;99481.72;5015720;28;45417;-70
2022/10/26 04:21:21;;;;;;;;;11.25;8.25;;;;;15.82;93.71;99476.56;5016002;28;45414;-70
2022/10/26 04:23:46;;;;;;;;;8.50;8.50;;;;;15.82;93.53;99478.38;5015805;28;45291;-70
2022/10/26 04:26:13;;;;;;;;;9.25;9.25;;;;;15.79;94.20;99476.75;5015650;28;46236;-70
2022/10/26 04:28:38;;;;;;;;;9.50;9.50;;;;;15.78;94.13;99479.47;5015771;28;45374;-70
2022/10/26 04:31:04;;;;;;;;;7.50;7.50;;;;;15.76;93.97;99484.88;5015825;28;45358;-70
2022/10/26 04:33:29;;;;;;;;;10.25;7.25;;;;;15.73;94.10;99482.41;5015783;28;45363;-70
2022/10/26 04:35:59;;;;;;;;;7.00;7.00;;;;;15.70;94.19;99480.78;5015126;28;45550;-70
2022/10/26 04:38:25;;;;;;;;;9.60;7.80;;;;;15.67;94.44;99483.59;5015652;28;45426;-70
2022/10/26 04:40:51;;;;;;;;;8.25;6.75;;;;;15.65;94.63;99485.50;5015713;28;45389;-70
2022/10/26 04:43:16;;;;;;;;;7.25;6.75;;;;;15.62;94.45;99498.94;5015577;28;45355;-70
2022/10/26 04:45:41;;;;;;;;;10.00;8.00;;;;;15.62;94.79;99501.59;5015352;28;45757;-70
2022/10/26 04:48:10;;;;;;;;;9.00;5.75;;;;;15.62;94.60;99498.06;5015343;28;45425;-70
2022/10/26 04:50:36;;;;;;;;;7.25;6.50;;;;;15.61;94.92;99496.34;5015355;28;45374;-70
2022/10/26 04:53:06;;;;;;;;;7.25;7.25;;;;;15.61;95.04;99496.34;5014573;28;45776;-70
2022/10/26 04:55:32;;;;;;;;;10.00;7.25;;;;;15.59;95.31;99503.56;5020728;28;45522;-70
2022/10/26 04:57:57;;;;;;;;;9.60;8.20;;;;;15.58;95.35;99504.53;5014080;28;45385;-70
2022/10/26 05:00:23;;;;;;;;;8.25;8.25;;;;;15.58;94.86;99500.06;5015003;28;45832;-70
2022/10/26 05:02:48;;;;;;;;;8.50;8.25;;;;;15.57;94.93;99503.66;5014872;28;45544;-70
2022/10/26 05:05:14;;;;;;;;;8.50;8.00;;;;;15.55;95.17;99510.88;5014351;28;45451;-70
2022/10/26 05:07:39;;;;;;;;;10.25;10.25;;;;;15.53;95.02;99506.53;5015014;28;45366;-70
2022/10/26 05:10:06;;;;;;;;;11.75;11.75;;;;;15.53;95.28;99514.50;5014855;28;45288;-70
2022/10/26 05:12:31;;;;;;;;;10.00;9.75;;;;;15.49;95.54;99513.81;5014652;28;45315;-70
2022/10/26 05:14:57;;;;;;;;;8.75;8.00;;;;;15.47;95.50;99509.50;5014164;28;46355;-70
2022/10/26 05:17:27;;;;;;;;;11.20;9.80;;;;;15.44;96.00;99521.16;5014386;28;45383;-70
2022/10/26 05:19:54;;;;;;;;;9.25;8.50;;;;;15.41;95.97;99512.50;5013892;28;45279;-70
2022/10/26 05:22:26;;;;;;;;;10.75;9.75;;;;;15.38;96.31;99521.50;5014675;28;45350;-71
2022/10/26 05:24:52;;;;;;;;;7.00;7.00;;;;;15.34;96.29;99515.50;5013984;28;46402;-71
2022/10/26 05:27:17;;;;;;;;;11.75;8.75;;;;;15.33;96.67;99518.22;5014689;28;45596;-70
2022/10/26 05:29:42;;;;;;;;;9.50;9.00;;;;;15.30;96.78;99516.59;5015172;28;45367;-70
2022/10/26 05:32:08;;;;;;;;;10.75;10.75;;;;;15.28;96.58;99513.16;5021687;28;45553;-70
2022/10/26 05:34:33;;;;;;;;;10.25;9.25;;;;;15.26;97.00;99520.34;5013621;28;45437;-70
2022/10/26 05:36:58;;;;;;;;;8.75;8.75;;;;;15.25;97.10;99521.28;5014339;28;45364;-70
2022/10/26 05:39:24;;;;;;;;;9.50;9.50;;;;;15.23;96.94;99520.53;5014140;28;45417;-70
2022/10/26 05:41:49;;;;;;;;;10.50;10.50;;;;;15.22;97.09;99520.59;5015583;28;45580;-71
2022/10/26 05:44:15;;;;;;;;;5.50;5.00;;;;;15.18;97.44;99519.91;5013988;28;46362;-71
2022/10/26 05:46:41;;;;;;;;;9.75;9.50;;;;;15.15;97.10;99524.50;5013934;28;45552;-71
2022/10/26 05:49:06;;;;;;;;;13.00;11.00;;;;;15.12;97.66;99527.31;5013529;28;45316;-70
2022/10/26 05:51:36;;;;;;;;;10.75;9.75;;;;;15.10;97.80;99529.19;5024727;28;45391;-70
2022/10/26 05:54:02;;;;;;;;;11.50;11.25;;;;;15.06;97.57;99531.16;5021292;28;45466;-71
2022/10/26 05:56:34;;;;;;;;;8.80;7.20;;;;;15.06;97.96;99528.50;5022145;28;45358;-70
2022/10/26 05:59:00;;;;;;;;;14.50;10.25;;;;;15.06;97.85;99527.66;5016469;28;45574;-70
2022/10/26 06:01:37;;;;;;;;;14.50;12.75;;;;;15.05;98.22;99534.75;5013243;28;45405;-71
2022/10/26 06:04:34;;;;;;;;;15.50;11.00;;;;;15.04;97.86;99533.03;5022291;28;46309;-71
2022/10/26 06:07:01;;;;;;;;;12.75;10.50;;;;;15.05;98.10;99541.88;5008275;28;45384;-71
2022/10/26 06:09:27;;;;;;;;;15.00;12.75;;;;;15.04;97.71;99535.69;5014269;28;45592;-71
2022/10/26 06:11:53;;;;;;;;;10.25;8.75;;;;;15.04;98.09;99537.50;5024742;28;45326;-71
2022/10/26 06:14:18;;;;;;;;;6.25;5.00;;;;;15.06;98.01;99544.44;5027348;28;45966;-65
2022/10/26 06:17:05;;;;;;;;;10.50;10.50;;;;;15.10;98.17;99542.47;5021455;28;45339;-65
2022/10/26 06:20:02;;;;;;;;;13.75;12.25;;;;;15.13;97.74;99547.63;5016593;28;45473;-65
2022/10/26 06:22:42;;;;;;;;;11.25;11.00;;;;;15.15;97.93;99549.25;5005622;28;45367;-64
2022/10/26 06:25:26;;;;;;;;;12.00;11.00;;;;;15.15;97.74;99548.41;5014931;28;45398;-64
2022/10/26 06:27:54;;;;;;;;;11.80;9.20;;;;;15.17;97.51;99554.50;5008728;28;45428;-64
2022/10/26 06:30:22;;;;;;;;;15.00;11.00;;;;;15.18;97.36;99561.53;5015107;28;45479;-64
2022/10/26 06:32:49;;;;;;;;;10.75;10.00;;;;;15.18;97.45;99570.34;5010818;28;45508;-64
2022/10/26 06:35:32;;;;;;;;;13.00;12.25;;;;;15.17;97.47;99571.28;5020364;28;48226;-64
2022/10/26 06:38:03;;;;;;;;;10.20;10.20;;;;;15.18;97.65;99573.00;5016961;28;45425;-64
2022/10/26 06:40:31;;;;;;;;;10.75;10.25;;;;;15.20;97.86;99573.81;5024638;28;45508;-64
2022/10/26 06:42:58;;;;;;;;;18.00;15.50;;;;;15.21;97.23;99570.22;5015920;28;45522;-64
2022/10/26 06:45:24;;;;;;;;;12.50;11.25;;;;;15.21;97.18;99580.84;5012814;28;46174;-63
2022/10/26 06:47:59;;;;;;;;;15.25;13.00;;;;;15.19;97.16;99589.81;5014241;28;45489;-64
2022/10/26 06:50:43;;;;;;;;;14.00;13.75;;;;;15.19;97.31;99592.47;5027922;28;45547;-71
2022/10/26 06:53:29;;;;;;;;;13.00;12.75;;;;;15.20;97.39;99599.50;5003711;28;45528;-64
2022/10/26 06:55:57;;;;;;;;;13.75;13.00;;;;;15.21;97.30;99603.88;5015178;28;45461;-63
2022/10/26 06:58:28;;;;;;;;;14.25;13.00;;;;;15.22;97.06;99610.91;5016677;28;45419;-64
2022/10/26 07:00:55;;;;;;;;;15.00;11.50;;;;;15.23;97.08;99615.28;5015764;28;45501;-63
2022/10/26 07:03:20;;;;;;;;;13.25;11.25;;;;;15.24;97.31;99623.19;5016678;28;45366;-64
2022/10/26 07:05:46;;;;;;;;;12.00;12.00;;;;;15.26;97.19;99625.72;5015790;28;45757;-64
2022/10/26 07:08:11;;;;;;;;;11.25;10.00;;;;;15.28;97.02;99624.72;5016347;28;45500;-63
2022/10/26 07:10:38;;;;;;;;;14.50;13.75;;;;;15.31;96.57;99621.06;5031327;28;45343;-64
2022/10/26 07:13:07;;;;;;;;;13.50;12.75;;;;;15.33;96.53;99635.97;5016384;28;45406;-64
2022/10/26 07:15:37;;;;;;;;;14.00;13.00;;;;;15.35;96.51;99626.13;5016240;28;45666;-64
2022/10/26 07:18:06;;;;;;;;;13.50;12.25;;;;;15.38;96.76;99638.41;5016465;28;45316;-64
2022/10/26 07:20:36;;;;;;;;;12.00;11.50;;;;;15.41;96.04;99645.38;5014350;28;45450;-63
2022/10/26 07:23:05;;;;;;;;;10.50;10.50;;;;;15.44;96.09;99651.34;5015858;28;45282;-63
2022/10/26 07:25:31;;;;;;;;;11.25;9.25;;;;;15.48;96.34;99660.03;5002906;28;46438;-64
2022/10/26 07:27:58;;;;;;;;;13.25;11.50;;;;;15.52;95.90;99658.94;5016401;28;45342;-64
2022/10/26 07:30:24;;;;;;;;;10.50;10.50;;;;;15.54;95.82;99659.72;5016445;28;45521;-64
2022/10/26 07:32:49;;;;;;;;;8.50;8.50;;;;;15.57;96.06;99667.59;5015942;28;45417;-64
2022/10/26 07:35:15;;;;;;;;;20.75;19.00;;;;;15.61;95.83;99669.13;5015609;28;45459;-64
2022/10/26 07:37:40;;;;;;;;;13.75;11.75;;;;;15.65;95.66;99665.38;5016148;28;45358;-64
2022/10/26 07:40:06;;;;;;;;;12.25;11.25;;;;;15.69;95.66;99674.91;5016375;28;45688;-63
2022/10/26 07:42:32;;;;;;;;;10.50;9.50;;;;;15.73;95.90;99684.44;5016174;28;45376;-64
2022/10/26 07:44:57;;;;;;;;;14.25;11.50;;;;;15.77;95.67;99682.47;5016170;28;46104;-64
2022/10/26 07:47:23;;;;;;;;;12.00;11.25;;;;;15.80;95.59;99679.66;5015619;28;45450;-64
2022/10/26 07:49:48;;;;;;;;;11.00;11.00;;;;;15.85;95.69;99677.63;5015743;28;45328;-64
2022/10/26 07:52:14;;;;;;;;;16.50;14.00;;;;;15.89;95.38;99673.88;5015337;28;45553;-64
2022/10/26 07:54:39;;;;;;;;;15.00;13.50;;;;;15.93;95.36;99678.06;5015861;28;46118;-64
2022/10/26 07:57:04;;;;;;;;;19.25;13.50;;;;;15.97;95.26;99682.28;5016195;28;45570;-64
2022/10/26 07:59:30;;;;;;;;;13.75;12.25;;;;;16.01;95.04;99687.38;5016439;28;45369;-64
2022/10/26 08:01:55;;;;;;;;;12.50;12.25;;;;;16.05;94.90;99678.28;5015737;28;45613;-64
2022/10/26 08:04:20;;;;;;;;;13.50;10.75;;;;;16.09;94.95;99684.28;5015708;28;45455;-64
2022/10/26 08:06:47;;;;;;;;;12.25;10.00;;;;;16.13;94.36;99685.84;5015781;28;45432;-64
2022/10/26 08:09:13;;;;;;;;;12.50;11.00;;;;;16.17;94.71;99684.75;5003048;28;45362;-64
2022/10/26 08:11:38;;;;;;;;;15.75;11.75;;;;;16.22;94.55;99687.16;5015072;28;45586;-64
2022/10/26 08:14:04;;;;;;;;;16.25;13.00;;;;;16.25;94.20;99687.88;5015731;28;45491;-64
2022/10/26 08:16:30;;;;;;;;;10.50;9.75;;;;;16.29;94.29;99685.88;5015386;28;45378;-64
2022/10/26 08:18:55;;;;;;;;;13.50;12.75;;;;;16.34;94.19;99686.50;5015147;28;45453;-64
2022/10/26 08:21:21;;;;;;;;;15.25;11.75;;;;;16.37;93.94;99687.19;5015050;28;45559;-65
2022/10/26 08:23:46;;;;;;;;;13.75;12.00;;;;;16.42;93.83;99691.41;5015291;28;45376;-65
2022/10/26 08:26:12;;;;;;;;;13.75;12.75;;;;;16.46;93.21;99690.28;5014085;28;45406;-65
2022/10/26 08:28:38;;;;;;;;;15.00;14.00;;;;;16.49;93.14;99684.78;5015557;28;45465;-65
2022/10/26 08:31:04;;;;;;;;;28.50;24.25;;;;;16.54;93.46;99682.75;5015522;28;45523;-65
2022/10/26 08:33:29;;;;;;;;;27.50;21.25;;;;;16.58;93.36;99676.31;5012137;28;47634;-65
2022/10/26 08:36:00;;;;;;;;;15.75;15.00;;;;;16.63;93.14;99683.09;5015522;28;45418;-65
2022/10/26 08:38:26;;;;;;;;;20.00;15.75;;;;;16.68;93.53;99678.38;5015306;28;45200;-65
2022/10/26 08:40:53;;;;;;;;;17.75;16.00;;;;;16.74;93.12;99691.38;5015005;28;45714;-65
2022/10/26 08:43:28;;;;;;;;;22.75;19.50;;;;;16.78;92.58;99688.50;5015152;28;45330;-65
2022/10/26 08:46:11;;;;;;;;;15.50;15.00;;;;;16.83;92.26;99683.78;5014850;28;45466;-65
2022/10/26 08:48:39;;;;;;;;;15.25;13.25;;;;;16.87;92.86;99686.19;5015336;28;45341;-65
2022/10/26 08:51:14;;;;;;;;;15.25;13.75;;;;;16.92;92.45;99686.81;5014795;28;45334;-65
2022/10/26 08:53:42;;;;;;;;;16.50;14.25;;;;;16.98;92.09;99686.44;5015196;28;45374;-65
2022/10/26 08:56:31;;;;;;;;;14.00;14.00;;;;;17.05;92.31;99686.97;5014839;28;45361;-65
2022/10/26 08:59:02;;;;;;;;;20.25;16.75;;;;;17.14;91.73;99693.53;5015011;28;45336;-65
2022/10/26 09:01:32;;;;;;;;;21.50;14.00;;;;;17.20;91.10;99693.19;5014910;28;45389;-65
2022/10/26 09:04:01;;;;;;;;;17.25;16.00;;;;;17.26;90.70;99685.69;5014472;28;45346;-65
2022/10/26 09:06:38;;;;;;;;;15.40;13.20;;;;;17.32;90.58;99685.34;5014732;28;45485;-65
2022/10/26 09:09:09;;;;;;;;;11.75;11.00;;;;;17.38;90.29;99687.66;5014870;28;45504;-65
2022/10/26 09:11:40;;;;;;;;;16.25;15.75;;;;;17.44;89.65;99681.09;5014722;28;45470;-65
2022/10/26 09:14:16;;;;;;;;;13.75;12.50;;;;;17.50;89.01;99690.53;5014191;28;45439;-65
2022/10/26 09:17:39;;;;;;;;;12.80;12.80;;;;;17.55;88.56;99693.78;5014481;28;45385;-65
2022/10/26 09:20:49;;;;;;;;;16.25;12.75;;;;;17.62;88.15;99696.00;4991996;28;45634;-65
2022/10/26 09:23:36;;;;;;;;;10.25;9.75;;;;;17.68;88.40;99700.16;4987256;28;45379;-65
2022/10/26 09:26:02;;;;;;;;;12.25;10.75;;;;;17.71;87.78;99699.97;5012281;28;45396;-65
2022/10/26 09:28:34;;;;;;;;;13.00;11.60;;;;;17.76;88.07;99696.03;5014491;28;45452;-65
2022/10/26 09:31:02;;;;;;;;;12.50;10.50;;;;;17.82;87.62;99692.16;5014526;28;45291;-65
2022/10/26 09:33:33;;;;;;;;;12.50;12.25;;;;;17.87;87.68;99690.09;5013958;28;45445;-65
2022/10/26 09:36:18;;;;;;;;;12.50;9.25;;;;;17.92;87.03;99695.16;5014571;28;46320;-65
2022/10/26 09:39:07;;;;;;;;;12.40;12.40;;;;;17.97;86.37;99696.56;5003647;28;45378;-65
2022/10/26 09:41:38;;;;;;;;;9.40;8.00;;;;;18.04;86.06;99692.59;5012616;28;45546;-65
2022/10/26 09:44:25;;;;;;;;;13.00;10.00;;;;;18.11;85.81;99696.56;5014606;28;45286;-65
2022/10/26 09:46:57;;;;;;;;;8.25;6.25;;;;;18.18;85.88;99697.06;5015605;28;48150;-65
2022/10/26 09:49:32;;;;;;;;;9.20;8.80;;;;;18.25;85.50;99697.53;5017145;28;45354;-65
2022/10/26 09:51:58;;;;;;;;;9.40;9.40;;;;;18.32;84.82;99696.19;5018071;28;45408;-65
2022/10/26 09:54:23;;;;;;;;;9.25;8.25;;;;;18.40;85.21;99696.59;5017593;28;45303;-65
2022/10/26 09:56:52;;;;;;;;;7.00;6.50;;;;;18.47;84.15;99698.75;5017375;28;45311;-65
2022/10/26 09:59:21;;;;;;;;;8.60;8.40;;;;;18.56;83.21;99699.13;5017598;28;45444;-65
2022/10/26 10:01:47;;;;;;;;;12.20;10.60;;;;;18.62;83.48;99704.09;5016134;28;45340;-64
2022/10/26 10:04:12;;;;;;;;;11.00;9.75;;;;;18.69;84.17;99700.97;5017007;28;45500;-64
2022/10/26 10:06:45;;;;;;;;;12.75;11.00;;;;;18.75;83.71;99703.25;5015868;28;46355;-64
2022/10/26 10:09:16;;;;;;;;;12.00;11.80;;;;;18.84;82.67;99701.78;5016868;28;45386;-64
2022/10/26 10:11:53;;;;;;;;;14.20;10.20;;;;;18.92;82.85;99704.81;5017350;28;45337;-65
2022/10/26 10:14:20;;;;;;;;;12.50;11.00;;;;;18.99;82.61;99691.91;5015927;28;45456;-65
2022/10/26 10:16:53;;;;;;;;;11.00;10.00;;;;;19.05;82.41;99689.69;5016991;28;45330;-66
2022/10/26 10:19:31;;;;;;;;;11.60;11.60;;;;;19.11;82.37;99699.97;5016540;28;45406;-65
2022/10/26 10:22:21;;;;;;;;;9.40;9.20;;;;;19.15;81.81;99698.81;5030267;28;45275;-65
2022/10/26 10:24:55;;;;;;;;;13.25;12.25;;;;;19.22;81.62;99703.75;5013025;28;45410;-64
2022/10/26 10:27:22;;;;;;;;;13.00;11.75;;;;;19.27;81.16;99698.97;5015900;28;48322;-65
2022/10/26 10:30:19;;;;;;;;;11.00;10.40;;;;;19.34;81.11;99700.28;5015577;28;45973;-65
2022/10/26 10:32:44;;;;;;;;;9.40;9.40;;;;;19.39;80.47;99688.31;5015816;28;45462;-65
2022/10/26 10:35:24;;;;;;;;;9.25;9.00;;;;;19.45;79.82;99690.56;5014975;28;45524;-65
2022/10/26 10:37:50;;;;;;;;;9.80;8.40;;;;;19.50;79.83;99685.78;5015877;28;46735;-64
2022/10/26 10:40:25;;;;;;;;;13.80;10.80;;;;;19.56;79.29;99686.34;5016966;28;45373;-64
2022/10/26 10:42:54;;;;;;;;;11.60;11.00;;;;;19.62;79.68;99685.91;5016807;28;45535;-66
2022/10/26 10:45:23;;;;;;;;;10.25;8.50;;;;;19.68;78.46;99689.03;5017014;28;45343;-65
2022/10/26 10:48:13;;;;;;;;;11.80;10.80;;;;;19.77;78.52;99687.56;5016605;28;45688;-64
2022/10/26 10:50:53;;;;;;;;;10.00;10.00;;;;;19.82;77.99;99678.25;5016062;28;45267;-65
2022/10/26 10:53:25;;;;;;;;;12.00;11.25;;;;;19.89;78.25;99676.00;5015263;28;45560;-65
2022/10/26 10:56:26;;;;;;;;;12.50;9.50;;;;;19.94;77.25;99678.38;5015790;28;45441;-65
2022/10/26 10:59:01;;;;;;;;;11.40;8.20;;;;;19.99;76.60;99679.75;5016535;28;45398;-65
2022/10/26 11:01:36;;;;;;;;;9.20;8.40;;;;;20.02;76.36;99668.81;5016654;28;45429;-65
2022/10/26 11:04:32;;;;;;;;;11.60;10.80;;;;;20.08;75.84;99663.06;5016353;28;45442;-65
2022/10/26 11:07:01;;;;;;;;;8.00;7.75;;;;;20.13;75.85;99652.84;5016592;28;45488;-65
2022/10/26 11:09:31;;;;;;;;;10.40;9.60;;;;;20.19;76.73;99660.47;5015341;28;47265;-65
2022/10/26 11:12:01;;;;;;;;;12.60;8.00;;;;;20.24;76.69;99661.97;5016323;28;45504;-65
2022/10/26 11:14:33;;;;;;;;;10.80;7.60;;;;;20.29;76.43;99659.78;5016390;28;45433;-65
2022/10/26 11:17:39;;;;;;;;;13.50;10.00;;;;;20.35;75.50;99656.69;5016261;28;45514;-65
2022/10/26 11:20:14;;;;;;;;;13.00;11.00;;;;;20.41;75.02;99662.50;4993619;28;45538;-65
2022/10/26 11:23:00;;;;;;;;;13.20;10.60;;;;;20.50;75.32;99658.28;5010813;28;45494;-65
2022/10/26 11:25:32;;;;;;;;;9.25;8.00;;;;;20.57;75.43;99661.41;5016729;28;45500;-65
2022/10/26 11:28:03;;;;;;;;;8.00;6.75;;;;;20.63;75.60;99650.22;5016308;28;45433;-67
2022/10/26 11:30:32;;;;;;;;;10.00;8.00;;;;;20.69;74.38;99655.13;5016038;28;46648;-65
2022/10/26 11:33:12;;;;;;;;;5.80;5.40;;;;;20.75;75.21;99650.19;5016141;28;45338;-65
2022/10/26 11:35:55;;;;;;;;;7.00;7.00;;;;;20.80;74.55;99650.69;5014731;28;45381;-65
2022/10/26 11:38:30;;;;;;;;;9.20;8.00;;;;;20.87;74.54;99646.59;5016050;28;45377;-65
2022/10/26 11:41:17;;;;;;;;;10.80;10.00;;;;;20.91;74.32;99647.25;5015913;28;45368;-65
2022/10/26 11:43:48;;;;;;;;;12.40;9.40;;;;;20.94;74.05;99641.66;5016279;28;45469;-65